createdAt,value
2023-03-24T00:03:39.157Z,0
2023-03-24T00:08:40.897Z,0
2023-03-24T00:13:42.346Z,0
2023-03-24T00:18:43.825Z,0
2023-03-24T00:23:45.291Z,-61656
2023-03-24T00:28:46.777Z,-61656
2023-03-24T00:33:48.233Z,-61656
2023-03-24T00:38:49.640Z,-61656
2023-03-24T00:43:51.129Z,-61656
2023-03-24T00:48:52.567Z,-61656
2023-03-24T00:53:53.949Z,-61656
2023-03-24T00:58:55.377Z,-61656
2023-03-24T01:03:57.002Z,-61656
2023-03-24T01:08:58.563Z,-61656
2023-03-24T01:14:00.043Z,-61656
2023-03-24T01:19:01.497Z,0
2023-03-24T01:24:02.949Z,-61656
2023-03-24T01:29:04.434Z,-61656
2023-03-24T01:34:05.822Z,0
2023-03-24T01:39:07.297Z,0
2023-03-24T01:44:08.757Z,61544
2023-03-24T01:49:10.151Z,61544
2023-03-24T01:54:11.689Z,30744
2023-03-24T01:59:13.209Z,0
2023-03-24T02:04:14.728Z,7644
2023-03-24T02:09:16.209Z,15344
2023-03-24T02:14:17.920Z,0
2023-03-24T02:19:19.505Z,0
2023-03-24T02:24:20.956Z,0
2023-03-24T02:29:22.494Z,0
2023-03-24T02:34:24.026Z,0
2023-03-24T02:39:25.625Z,0
2023-03-24T02:44:27.035Z,-61656
2023-03-24T02:49:28.458Z,0
2023-03-24T02:54:30.040Z,0
2023-03-24T02:59:31.476Z,0
2023-03-24T03:04:32.966Z,0
2023-03-24T03:09:34.453Z,0
2023-03-24T03:14:35.948Z,0
2023-03-24T03:19:37.529Z,0
2023-03-24T03:24:38.962Z,0
2023-03-24T03:29:40.373Z,61544
2023-03-24T03:34:42.106Z,0
2023-03-24T03:39:43.522Z,0
2023-03-24T03:44:45.055Z,0
2023-03-24T03:49:46.522Z,0
2023-03-24T03:54:47.988Z,0
2023-03-24T03:59:49.446Z,0
2023-03-24T04:05:03.203Z,0
2023-03-24T04:10:07.655Z,0
2023-03-24T04:15:09.421Z,0
2023-03-24T04:20:10.990Z,0
2023-03-24T04:25:12.440Z,0
2023-03-24T04:30:16.495Z,0
2023-03-24T04:35:18.674Z,61544
2023-03-24T04:40:20.100Z,61544
2023-03-24T04:45:21.508Z,61544
2023-03-24T04:50:22.933Z,61544
2023-03-24T04:55:24.334Z,61544
2023-03-24T05:00:25.749Z,0
2023-03-24T05:05:27.160Z,0
2023-03-24T05:10:28.552Z,0
2023-03-24T05:15:30.046Z,0
2023-03-24T05:20:31.449Z,61544
2023-03-24T05:25:32.837Z,61544
2023-03-24T05:30:34.297Z,30744
2023-03-24T05:35:35.755Z,61544
2023-03-24T05:40:37.213Z,61544
2023-03-24T05:45:38.636Z,61544
2023-03-24T05:50:40.119Z,15344
2023-03-24T05:55:41.758Z,61544
2023-03-24T06:00:43.306Z,61544
2023-03-24T06:05:44.917Z,30744
2023-03-24T06:10:46.412Z,20477.33333
2023-03-24T06:15:48.167Z,20477.33333
2023-03-24T06:20:50.089Z,12264
2023-03-24T06:25:51.543Z,8744
2023-03-24T06:30:53.040Z,15344
2023-03-24T06:35:54.477Z,7644
2023-03-24T06:40:55.932Z,8744
2023-03-24T06:45:57.358Z,4050.66667
2023-03-24T06:50:58.861Z,2877.33333
2023-03-24T06:56:00.318Z,1446.43902
2023-03-24T07:01:01.789Z,1997.33333
2023-03-24T07:06:03.260Z,1810.66667
2023-03-24T07:11:04.637Z,1344
2023-03-24T07:16:06.051Z,1227.33333
2023-03-24T07:21:07.477Z,2313.23077
2023-03-24T07:26:08.889Z,2744
2023-03-24T07:31:10.291Z,2313.23077
2023-03-24T07:36:11.777Z,1565.05263
2023-03-24T07:41:13.180Z,1283.13043
2023-03-24T07:46:14.665Z,811.60563
2023-03-24T07:51:16.165Z,475.03448
2023-03-24T07:56:17.552Z,686.16867
2023-03-24T08:01:18.923Z,1128.61538
2023-03-24T08:06:20.514Z,970.66667
2023-03-24T08:11:22.140Z,1484
2023-03-24T08:16:23.832Z,1869
2023-03-24T08:21:25.443Z,1655.11111
2023-03-24T08:26:26.910Z,3794
2023-03-24T08:31:28.435Z,3186.10526
2023-03-24T08:36:29.910Z,1376.55814
2023-03-24T08:41:31.364Z,1523.48718
2023-03-24T08:46:32.983Z,970.66667
2023-03-24T08:51:34.464Z,776.43243
2023-03-24T08:56:35.912Z,849.88235
2023-03-24T09:01:37.908Z,988.0678
2023-03-24T09:06:39.383Z,1810.66667
2023-03-24T09:11:40.820Z,1755.76471
2023-03-24T09:16:42.257Z,1869
2023-03-24T09:21:43.700Z,1024.70175
2023-03-24T09:26:45.135Z,1376.55814
2023-03-24T09:31:46.680Z,1484
2023-03-24T09:36:48.155Z,2068.13793
2023-03-24T09:41:49.585Z,1565.05263
2023-03-24T09:46:51.180Z,1376.55814
2023-03-24T09:51:52.892Z,1312.88889
2023-03-24T09:56:54.318Z,1084.74074
2023-03-24T10:01:55.731Z,744
2023-03-24T10:06:57.175Z,723.74684
2023-03-24T10:11:58.836Z,799.55556
2023-03-24T10:17:00.280Z,723.74684
2023-03-24T10:22:01.877Z,592.42105
2023-03-24T10:27:03.486Z,1227.33333
2023-03-24T10:32:05.012Z,2313.23077
2023-03-24T10:37:06.502Z,4050.66667
2023-03-24T10:42:07.892Z,4344
2023-03-24T10:47:09.535Z,5077.33333
2023-03-24T10:52:10.955Z,2313.23077
2023-03-24T10:57:12.418Z,1523.48718
2023-03-24T11:02:14.214Z,613.56522
2023-03-24T11:07:15.719Z,514.37037
2023-03-24T11:12:17.131Z,811.60563
2023-03-24T11:17:18.630Z,704.49383
2023-03-24T11:22:20.289Z,572.57143
2023-03-24T11:27:21.750Z,704.49383
2023-03-24T11:32:23.507Z,799.55556
2023-03-24T11:37:24.942Z,824
2023-03-24T11:42:26.305Z,2744
2023-03-24T11:47:28.273Z,10210.66667
2023-03-24T11:52:29.681Z,8744
2023-03-24T11:57:31.198Z,5077.33333
2023-03-24T12:02:32.810Z,8744
2023-03-24T12:07:34.339Z,12264
2023-03-24T12:12:35.964Z,61544
2023-03-24T12:17:37.431Z,30744
2023-03-24T12:22:39.150Z,61544
2023-03-24T12:27:40.802Z,30744
2023-03-24T12:32:42.449Z,8744
2023-03-24T12:37:44.077Z,6788.44444
2023-03-24T12:42:45.538Z,8744
2023-03-24T12:47:47.041Z,5544
2023-03-24T12:52:58.115Z,3366.22222
2023-03-24T12:58:06.306Z,1565.05263
2023-03-24T13:03:07.823Z,2144
2023-03-24T13:08:09.309Z,2144
2023-03-24T13:13:10.774Z,10210.66667
2023-03-24T13:18:12.332Z,61544
2023-03-24T13:23:13.813Z,61544
2023-03-24T13:28:15.285Z,61544
2023-03-24T13:33:16.864Z,61544
2023-03-24T13:38:18.446Z,61544
2023-03-24T13:43:19.892Z,61544
2023-03-24T13:48:21.306Z,61544
2023-03-24T13:53:22.835Z,61544
2023-03-24T13:58:24.554Z,61544
2023-03-24T14:03:26.056Z,61544
2023-03-24T14:08:27.616Z,61544
2023-03-24T14:13:29.029Z,61544
2023-03-24T14:18:30.640Z,61544
2023-03-24T14:23:32.098Z,61544
2023-03-24T14:28:33.588Z,61544
2023-03-24T14:33:34.994Z,61544
2023-03-24T14:38:36.517Z,61544
2023-03-24T14:43:38.202Z,61544
2023-03-24T14:48:39.738Z,61544
2023-03-24T14:53:41.226Z,61544
2023-03-24T14:58:42.718Z,61544
2023-03-24T15:03:44.330Z,61544
2023-03-24T15:08:46.049Z,61544
2023-03-24T15:13:47.501Z,61544
2023-03-24T15:18:58.119Z,61544
2023-03-24T15:24:02.907Z,61544
2023-03-24T15:29:04.590Z,61544
2023-03-24T15:34:06.019Z,61544
2023-03-24T15:39:07.557Z,61544
2023-03-24T15:44:09.019Z,61544
2023-03-24T15:49:10.498Z,61544
2023-03-24T15:54:11.977Z,61544
2023-03-24T15:59:13.355Z,61544
2023-03-24T16:04:15.047Z,61544
2023-03-24T16:09:16.547Z,61544
2023-03-24T16:14:18.239Z,61544
2023-03-24T16:19:19.845Z,61544
2023-03-24T16:24:21.267Z,61544
2023-03-24T16:29:22.774Z,61544
2023-03-24T16:34:29.405Z,61544
2023-03-24T16:39:30.917Z,61544
2023-03-24T16:44:32.478Z,0
2023-03-24T16:49:33.941Z,0
2023-03-24T16:54:35.449Z,61544
2023-03-24T16:59:36.885Z,61544
2023-03-24T17:04:39.136Z,61544
2023-03-24T17:09:42.941Z,61544
2023-03-24T17:14:45.457Z,61544
2023-03-24T17:19:47.156Z,61544
2023-03-24T17:24:48.574Z,61544
2023-03-24T17:29:49.953Z,61544
2023-03-24T17:34:51.351Z,61544
2023-03-24T17:39:52.724Z,61544
2023-03-24T17:44:54.342Z,61544
2023-03-24T17:49:55.771Z,61544
2023-03-24T17:54:57.186Z,0
2023-03-24T17:59:58.728Z,0
2023-03-24T18:05:05.365Z,61544
2023-03-24T18:10:07.105Z,0
2023-03-24T18:15:08.564Z,61544
2023-03-24T18:20:10.281Z,61544
2023-03-24T18:25:11.750Z,61544
2023-03-24T18:30:13.312Z,61544
2023-03-24T18:35:14.727Z,0
2023-03-24T18:40:16.332Z,61544
2023-03-24T18:45:18.747Z,0
2023-03-24T18:50:20.130Z,0
2023-03-24T18:55:21.646Z,0
2023-03-24T19:00:23.158Z,61544
2023-03-24T19:05:24.902Z,61544
2023-03-24T19:10:26.334Z,61544
2023-03-24T19:15:27.762Z,0
2023-03-24T19:20:29.457Z,61544
2023-03-24T19:25:31.165Z,61544
2023-03-24T19:30:32.621Z,61544
2023-03-24T19:35:34.161Z,61544
2023-03-24T19:40:36.912Z,61544
2023-03-24T19:45:38.530Z,61544
2023-03-24T19:50:40.109Z,61544
2023-03-24T19:55:41.538Z,0
2023-03-24T20:00:48.450Z,0
2023-03-24T20:05:50.393Z,0
2023-03-24T20:10:51.999Z,61544
2023-03-24T20:15:53.890Z,61544
2023-03-24T20:20:55.521Z,0
2023-03-24T20:25:56.940Z,0
2023-03-24T20:30:58.561Z,0
2023-03-24T20:36:00.057Z,0
2023-03-24T20:41:01.527Z,0
2023-03-24T20:46:03.084Z,0
2023-03-24T20:51:04.545Z,0
2023-03-24T20:56:06.026Z,0
2023-03-24T21:01:07.472Z,0
2023-03-24T21:06:09.087Z,0
2023-03-24T21:11:10.546Z,0
2023-03-24T21:16:12.039Z,0
2023-03-24T21:21:13.658Z,0
2023-03-24T21:26:15.266Z,0
2023-03-24T21:31:26.013Z,0
2023-03-24T21:36:27.609Z,0
2023-03-24T21:41:29.025Z,0
2023-03-24T21:46:30.704Z,0
2023-03-24T21:51:32.336Z,0
2023-03-24T21:56:33.787Z,0
2023-03-24T22:01:35.545Z,0
2023-03-24T22:06:37.126Z,0
2023-03-24T22:11:38.535Z,0
2023-03-24T22:16:40.081Z,0
2023-03-24T22:21:41.747Z,0
2023-03-24T22:26:43.159Z,0
2023-03-24T22:31:44.707Z,0
2023-03-24T22:36:46.186Z,0
2023-03-24T22:41:47.672Z,0
2023-03-24T22:46:49.239Z,-61656
2023-03-24T22:51:50.709Z,0
2023-03-24T22:56:52.124Z,0
2023-03-24T23:02:02.474Z,0
2023-03-24T23:07:10.229Z,0
2023-03-24T23:12:11.709Z,0
2023-03-24T23:17:21.364Z,0
2023-03-24T23:22:22.909Z,0
2023-03-24T23:27:24.629Z,0
2023-03-24T23:32:26.104Z,0
2023-03-24T23:37:27.588Z,0
2023-03-24T23:42:29.066Z,0
2023-03-24T23:47:33.835Z,0
2023-03-24T23:52:35.284Z,0
2023-03-24T23:57:36.766Z,0
